createdAt,value
2022-11-12T00:01:06.528Z,6.50
2022-11-12T00:03:33.281Z,6.50
2022-11-12T00:06:00.054Z,6.50
2022-11-12T00:08:27.049Z,6.30
2022-11-12T00:10:54.119Z,6.40
2022-11-12T00:13:20.823Z,6.20
2022-11-12T00:15:47.948Z,6.20
2022-11-12T00:18:14.657Z,6.20
2022-11-12T00:20:41.663Z,6.20
2022-11-12T00:23:08.635Z,6.20
2022-11-12T00:25:35.537Z,6.20
2022-11-12T00:28:10.100Z,6.10
2022-11-12T00:30:41.162Z,6.10
2022-11-12T00:33:08.149Z,6.10
2022-11-12T00:35:35.173Z,6.10
2022-11-12T00:38:02.206Z,6.10
2022-11-12T00:40:29.303Z,6.10
2022-11-12T00:42:56.408Z,6.10
2022-11-12T00:45:23.238Z,6.10
2022-11-12T00:47:50.170Z,6.00
2022-11-12T00:50:17.150Z,6.00
2022-11-12T00:52:43.908Z,6.00
2022-11-12T00:55:10.725Z,5.90
2022-11-12T00:57:37.569Z,5.90
2022-11-12T01:00:06.221Z,5.90
2022-11-12T01:02:42.399Z,5.90
2022-11-12T01:05:11.538Z,5.90
2022-11-12T01:07:38.313Z,5.90
2022-11-12T01:10:05.610Z,5.90
2022-11-12T01:12:33.176Z,5.90
2022-11-12T01:15:00.183Z,5.90
2022-11-12T01:17:27.236Z,5.80
2022-11-12T01:19:53.957Z,5.80
2022-11-12T01:22:20.871Z,5.80
2022-11-12T01:24:47.539Z,5.80
2022-11-12T01:27:14.611Z,5.80
2022-11-12T01:29:41.355Z,5.70
2022-11-12T01:32:08.297Z,5.70
2022-11-12T01:34:35.211Z,5.70
2022-11-12T01:37:01.933Z,5.70
2022-11-12T01:39:28.672Z,5.70
2022-11-12T01:41:55.363Z,5.70
2022-11-12T01:44:26.856Z,5.70
2022-11-12T01:47:19.770Z,5.60
2022-11-12T01:50:01.306Z,5.60
2022-11-12T01:52:46.321Z,5.60
2022-11-12T01:55:25.210Z,5.60
2022-11-12T01:58:09.057Z,5.60
2022-11-12T02:00:36.549Z,5.60
2022-11-12T02:03:08.322Z,5.60
2022-11-12T02:05:36.923Z,5.60
2022-11-12T02:08:05.730Z,5.60
2022-11-12T02:10:32.474Z,5.50
2022-11-12T02:13:17.905Z,5.50
2022-11-12T02:15:44.761Z,5.50
2022-11-12T02:18:11.657Z,5.50
2022-11-12T02:20:39.013Z,5.50
2022-11-12T02:23:07.376Z,5.40
2022-11-12T02:25:37.232Z,5.40
2022-11-12T02:28:08.249Z,5.40
2022-11-12T02:30:43.503Z,5.40
2022-11-12T02:33:10.430Z,5.40
2022-11-12T02:35:37.385Z,5.30
2022-11-12T02:38:05.119Z,5.30
2022-11-12T02:40:31.821Z,5.30
2022-11-12T02:42:59.143Z,5.30
2022-11-12T02:45:27.014Z,5.20
2022-11-12T02:47:54.052Z,5.10
2022-11-12T02:50:20.733Z,5.10
2022-11-12T02:52:47.539Z,5.10
2022-11-12T02:55:14.321Z,5.10
2022-11-12T02:57:41.564Z,5.00
2022-11-12T03:02:43.199Z,5.00
2022-11-12T03:05:11.186Z,4.90
2022-11-12T03:07:38.612Z,4.90
2022-11-12T03:10:05.954Z,4.90
2022-11-12T03:12:32.897Z,4.90
2022-11-12T03:14:59.707Z,4.90
2022-11-12T03:17:26.491Z,4.90
2022-11-12T03:19:53.172Z,4.90
2022-11-12T03:22:19.866Z,4.90
2022-11-12T03:24:46.614Z,4.90
2022-11-12T03:27:13.299Z,4.90
2022-11-12T03:29:40.058Z,4.90
2022-11-12T03:32:06.744Z,4.90
2022-11-12T03:34:33.420Z,4.90
2022-11-12T03:37:00.083Z,4.90
2022-11-12T03:39:26.751Z,4.90
2022-11-12T03:41:53.415Z,4.90
2022-11-12T03:44:20.223Z,4.90
2022-11-12T03:46:46.971Z,4.90
2022-11-12T03:49:13.691Z,4.90
2022-11-12T03:51:40.422Z,4.90
2022-11-12T03:54:07.274Z,4.90
2022-11-12T03:56:33.962Z,4.80
2022-11-12T03:59:00.755Z,4.80
2022-11-12T04:01:27.561Z,4.80
2022-11-12T04:03:54.249Z,4.80
2022-11-12T04:06:39.521Z,4.80
2022-11-12T04:09:06.254Z,4.80
2022-11-12T04:11:32.947Z,4.80
2022-11-12T04:14:00.558Z,4.80
2022-11-12T04:16:45.807Z,4.80
2022-11-12T04:19:32.091Z,4.80
2022-11-12T04:22:00.873Z,4.80
2022-11-12T04:25:00.746Z,4.70
2022-11-12T04:27:33.207Z,4.70
2022-11-12T04:30:16.597Z,4.70
2022-11-12T04:32:55.075Z,4.60
2022-11-12T04:35:23.554Z,4.60
2022-11-12T04:37:50.646Z,4.60
2022-11-12T04:40:37.113Z,4.60
2022-11-12T04:43:24.835Z,4.50
2022-11-12T04:45:53.734Z,4.50
2022-11-12T04:48:21.904Z,4.50
2022-11-12T04:50:53.598Z,4.50
2022-11-12T04:53:20.714Z,4.50
2022-11-12T04:55:54.848Z,4.50
2022-11-12T04:58:21.955Z,4.40
2022-11-12T05:00:50.228Z,4.40
2022-11-12T05:03:17.550Z,4.40
2022-11-12T05:05:44.401Z,4.40
2022-11-12T05:08:11.170Z,4.40
2022-11-12T05:10:37.882Z,4.40
2022-11-12T05:13:04.614Z,4.40
2022-11-12T05:15:31.420Z,4.40
2022-11-12T05:17:58.242Z,4.40
2022-11-12T05:20:24.981Z,4.30
2022-11-12T05:23:05.543Z,4.30
2022-11-12T05:25:34.226Z,4.30
2022-11-12T05:28:00.928Z,4.30
2022-11-12T05:30:27.657Z,4.30
2022-11-12T05:32:54.387Z,4.30
2022-11-12T05:35:21.083Z,4.30
2022-11-12T05:37:47.752Z,4.20
2022-11-12T05:40:14.463Z,4.20
2022-11-12T05:42:41.325Z,4.20
2022-11-12T05:45:08.760Z,4.10
2022-11-12T05:47:35.435Z,4.10
2022-11-12T05:50:02.348Z,4.10
2022-11-12T05:52:29.111Z,4.10
2022-11-12T05:54:55.782Z,4.10
2022-11-12T05:57:22.567Z,4.10
2022-11-12T05:59:49.230Z,4.00
2022-11-12T06:02:16.063Z,4.10
2022-11-12T06:04:42.911Z,4.00
2022-11-12T06:07:09.592Z,4.00
2022-11-12T06:09:36.357Z,4.00
2022-11-12T06:12:06.232Z,4.00
2022-11-12T06:14:32.948Z,4.00
2022-11-12T06:16:59.647Z,4.00
2022-11-12T06:19:26.378Z,3.90
2022-11-12T06:21:53.191Z,3.90
2022-11-12T06:24:20.312Z,3.90
2022-11-12T06:26:47.013Z,3.90
2022-11-12T06:29:13.682Z,3.90
2022-11-12T06:31:40.410Z,3.90
2022-11-12T06:34:07.103Z,3.90
2022-11-12T06:36:34.944Z,3.90
2022-11-12T06:39:01.684Z,3.90
2022-11-12T06:41:28.354Z,3.80
2022-11-12T06:43:55.030Z,3.80
2022-11-12T06:46:21.723Z,3.80
2022-11-12T06:48:48.380Z,3.80
2022-11-12T06:51:19.930Z,3.80
2022-11-12T06:53:47.120Z,3.70
2022-11-12T06:56:14.335Z,3.70
2022-11-12T06:58:41.828Z,3.70
2022-11-12T07:01:12.546Z,3.70
2022-11-12T07:03:42.184Z,3.70
2022-11-12T07:06:18.518Z,3.70
2022-11-12T07:08:45.397Z,3.70
2022-11-12T07:11:12.396Z,3.70
2022-11-12T07:13:39.443Z,3.70
2022-11-12T07:16:08.017Z,3.70
2022-11-12T07:18:35.475Z,3.70
2022-11-12T07:21:13.912Z,3.70
2022-11-12T07:23:40.807Z,3.70
2022-11-12T07:26:13.041Z,3.70
2022-11-12T07:28:40.063Z,3.70
2022-11-12T07:31:10.309Z,3.70
2022-11-12T07:33:37.479Z,3.70
2022-11-12T07:36:05.840Z,3.80
2022-11-12T07:38:34.901Z,3.80
2022-11-12T07:41:12.595Z,3.80
2022-11-12T07:43:40.446Z,3.80
2022-11-12T07:46:11.082Z,3.80
2022-11-12T07:48:38.575Z,3.80
2022-11-12T07:51:19.979Z,3.90
2022-11-12T07:53:48.086Z,3.90
2022-11-12T07:56:18.115Z,3.90
2022-11-12T07:58:45.447Z,3.90
2022-11-12T08:01:52.829Z,4.00
2022-11-12T08:04:19.712Z,4.10
2022-11-12T08:06:46.791Z,4.10
2022-11-12T08:09:13.647Z,4.10
2022-11-12T08:11:42.076Z,4.20
2022-11-12T08:14:09.129Z,4.20
2022-11-12T08:16:35.917Z,4.30
2022-11-12T08:19:02.741Z,4.30
2022-11-12T08:21:29.562Z,4.30
2022-11-12T08:23:56.341Z,4.30
2022-11-12T08:26:23.284Z,4.40
2022-11-12T08:28:50.170Z,4.50
2022-11-12T08:31:19.820Z,4.50
2022-11-12T08:33:46.759Z,4.60
2022-11-12T08:36:15.099Z,4.60
2022-11-12T08:41:11.947Z,4.80
2022-11-12T08:43:40.223Z,4.80
2022-11-12T08:46:07.103Z,4.90
2022-11-12T08:48:35.171Z,4.90
2022-11-12T08:51:03.578Z,5.00
2022-11-12T08:53:30.967Z,5.10
2022-11-12T08:55:58.345Z,5.10
2022-11-12T08:58:26.071Z,5.20
2022-11-12T09:00:53.992Z,5.30
2022-11-12T09:03:23.569Z,5.30
2022-11-12T09:05:51.054Z,5.40
2022-11-12T09:08:21.901Z,5.50
2022-11-12T09:10:49.326Z,5.60
2022-11-12T09:13:18.289Z,5.70
2022-11-12T09:15:46.257Z,5.90
2022-11-12T09:18:16.872Z,6.00
2022-11-12T09:20:43.836Z,6.10
2022-11-12T09:23:15.880Z,6.20
2022-11-12T09:25:42.978Z,6.60
2022-11-12T09:28:15.239Z,6.50
2022-11-12T09:30:46.352Z,6.60
2022-11-12T09:33:18.607Z,6.70
2022-11-12T09:35:46.499Z,6.80
2022-11-12T09:38:15.389Z,7.00
2022-11-12T09:40:51.477Z,7.10
2022-11-12T09:43:36.882Z,7.20
2022-11-12T09:46:28.501Z,7.20
2022-11-12T09:49:21.760Z,7.30
2022-11-12T09:51:53.863Z,7.40
2022-11-12T09:54:28.080Z,7.50
2022-11-12T09:56:55.344Z,7.60
2022-11-12T09:59:24.338Z,7.60
2022-11-12T10:02:02.619Z,7.90
2022-11-12T10:04:53.701Z,7.80
2022-11-12T10:07:40.468Z,7.90
2022-11-12T10:10:16.222Z,7.90
2022-11-12T10:13:17.662Z,8.00
2022-11-12T10:16:37.011Z,8.20
2022-11-12T10:19:22.534Z,8.10
2022-11-12T10:22:02.936Z,8.20
2022-11-12T10:24:36.906Z,8.20
2022-11-12T10:27:27.375Z,8.30
2022-11-12T10:30:03.872Z,8.80
2022-11-12T10:32:30.558Z,8.50
2022-11-12T10:37:33.917Z,8.70
2022-11-12T10:40:20.524Z,8.80
2022-11-12T10:43:16.585Z,8.80
2022-11-12T10:45:48.005Z,9.00
2022-11-12T10:48:31.026Z,9.10
2022-11-12T10:50:58.348Z,9.20
2022-11-12T10:53:35.263Z,9.30
2022-11-12T10:56:22.791Z,9.30
2022-11-12T10:59:26.654Z,9.30
2022-11-12T11:02:19.860Z,9.40
2022-11-12T11:04:46.805Z,9.50
2022-11-12T11:07:43.428Z,9.70
2022-11-12T11:10:29.943Z,9.60
2022-11-12T11:13:19.360Z,9.80
2022-11-12T11:16:30.451Z,9.80
2022-11-12T11:19:01.172Z,10.00
2022-11-12T11:21:49.928Z,10.00
2022-11-12T11:24:19.362Z,10.10
2022-11-12T11:26:58.819Z,10.20
2022-11-12T11:30:12.057Z,10.60
2022-11-12T11:32:53.826Z,10.40
2022-11-12T11:35:41.765Z,10.40
2022-11-12T11:38:21.374Z,10.50
2022-11-12T11:41:10.218Z,10.50
2022-11-12T11:46:24.099Z,10.60
2022-11-12T11:49:30.844Z,10.70
2022-11-12T11:52:15.641Z,10.80
2022-11-12T11:54:51.675Z,10.80
2022-11-12T11:57:51.572Z,11.00
2022-11-12T12:00:23.861Z,11.10
2022-11-12T12:03:12.692Z,11.10
2022-11-12T12:06:05.754Z,11.20
2022-11-12T12:08:56.913Z,11.30
2022-11-12T12:11:41.842Z,11.40
2022-11-12T12:14:53.990Z,11.40
2022-11-12T12:17:38.396Z,11.50
2022-11-12T12:20:44.420Z,11.50
2022-11-12T12:23:19.353Z,11.60
2022-11-12T12:25:49.224Z,11.60
2022-11-12T12:28:34.346Z,11.70
2022-11-12T12:31:07.159Z,11.80
2022-11-12T12:33:37.696Z,11.90
2022-11-12T12:36:11.240Z,11.90
2022-11-12T12:38:48.894Z,12.10
2022-11-12T12:41:37.273Z,12.10
2022-11-12T12:44:06.473Z,12.10
2022-11-12T12:46:46.630Z,12.10
2022-11-12T12:49:23.747Z,12.30
2022-11-12T12:51:55.616Z,12.30
2022-11-12T12:54:34.737Z,12.40
2022-11-12T12:57:04.118Z,12.40
2022-11-12T12:59:31.132Z,12.50
2022-11-12T13:02:03.104Z,12.60
2022-11-12T13:04:53.115Z,12.60
2022-11-12T13:07:47.186Z,12.70
2022-11-12T13:10:38.974Z,12.70
2022-11-12T13:13:31.852Z,12.80
2022-11-12T13:16:00.184Z,12.90
2022-11-12T13:18:50.207Z,12.90
2022-11-12T13:21:19.569Z,13.00
2022-11-12T13:24:11.096Z,13.00
2022-11-12T13:26:53.857Z,13.10
2022-11-12T13:29:29.827Z,13.10
2022-11-12T13:32:32.607Z,13.20
2022-11-12T13:35:26.143Z,13.20
2022-11-12T13:38:01.407Z,13.30
2022-11-12T13:41:09.854Z,13.30
2022-11-12T13:43:40.299Z,13.30
2022-11-12T13:46:07.307Z,13.40
2022-11-12T13:48:44.394Z,13.40
2022-11-12T13:51:22.512Z,13.40
2022-11-12T13:53:49.357Z,13.50
2022-11-12T13:56:33.970Z,13.50
2022-11-12T13:59:22.033Z,13.60
2022-11-12T14:01:49.995Z,13.50
2022-11-12T14:04:19.927Z,13.50
2022-11-12T14:06:54.699Z,13.60
2022-11-12T14:09:40.338Z,13.60
2022-11-12T14:12:16.392Z,13.60
2022-11-12T14:15:15.267Z,13.60
2022-11-12T14:18:00.512Z,13.60
2022-11-12T14:20:33.381Z,13.60
2022-11-12T14:23:14.072Z,13.60
2022-11-12T14:25:57.134Z,13.60
2022-11-12T14:28:31.354Z,13.70
2022-11-12T14:30:59.999Z,13.60
2022-11-12T14:33:29.046Z,13.60
2022-11-12T14:36:19.070Z,13.60
2022-11-12T14:38:53.680Z,13.50
2022-11-12T14:41:25.666Z,13.50
2022-11-12T14:44:11.512Z,13.50
2022-11-12T14:46:47.072Z,13.50
2022-11-12T14:49:42.368Z,13.50
2022-11-12T14:52:31.773Z,13.50
2022-11-12T14:55:05.972Z,13.50
2022-11-12T14:57:33.308Z,13.40
2022-11-12T14:59:59.993Z,13.40
2022-11-12T15:02:48.899Z,13.40
2022-11-12T15:05:23.432Z,13.40
2022-11-12T15:07:59.240Z,13.40
2022-11-12T15:10:33.060Z,13.30
2022-11-12T15:13:11.683Z,13.30
2022-11-12T15:15:49.435Z,13.20
2022-11-12T15:18:20.109Z,13.20
2022-11-12T15:21:12.020Z,13.10
2022-11-12T15:24:02.216Z,13.10
2022-11-12T15:26:36.588Z,13.00
2022-11-12T15:29:15.666Z,13.00
2022-11-12T15:31:57.102Z,12.90
2022-11-12T15:34:31.771Z,12.90
2022-11-12T15:37:02.424Z,12.90
2022-11-12T15:39:30.348Z,12.80
2022-11-12T15:42:14.110Z,12.80
2022-11-12T15:44:41.033Z,12.80
2022-11-12T15:47:19.846Z,12.70
2022-11-12T15:49:50.396Z,12.60
2022-11-12T15:52:17.467Z,12.50
2022-11-12T15:54:44.279Z,12.40
2022-11-12T15:57:23.245Z,12.40
2022-11-12T16:00:00.567Z,12.30
2022-11-12T16:02:31.980Z,12.20
2022-11-12T16:04:58.832Z,12.00
2022-11-12T16:07:25.750Z,12.00
2022-11-12T16:09:52.516Z,11.80
2022-11-12T16:12:19.421Z,11.70
2022-11-12T16:14:46.205Z,11.70
2022-11-12T16:17:17.726Z,11.60
2022-11-12T16:19:46.843Z,11.60
2022-11-12T16:22:16.342Z,11.50
2022-11-12T16:24:43.093Z,11.50
2022-11-12T16:27:16.270Z,11.40
2022-11-12T16:29:46.738Z,11.40
2022-11-12T16:32:14.251Z,11.30
2022-11-12T16:34:40.934Z,11.20
2022-11-12T16:37:11.824Z,11.20
2022-11-12T16:39:38.676Z,11.10
2022-11-12T16:42:05.478Z,11.10
2022-11-12T16:44:32.181Z,11.00
2022-11-12T16:47:01.746Z,10.90
2022-11-12T16:49:28.419Z,10.90
2022-11-12T16:51:55.109Z,10.80
2022-11-12T16:54:21.851Z,10.70
2022-11-12T16:56:50.972Z,10.60
2022-11-12T16:59:17.683Z,10.60
2022-11-12T17:01:44.374Z,10.50
2022-11-12T17:04:11.202Z,10.40
2022-11-12T17:06:40.518Z,10.40
2022-11-12T17:09:10.101Z,10.30
2022-11-12T17:11:37.673Z,10.20
2022-11-12T17:14:05.884Z,10.10
2022-11-12T17:16:32.765Z,10.00
2022-11-12T17:19:01.702Z,10.00
2022-11-12T17:21:29.626Z,10.00
2022-11-12T17:23:58.047Z,9.90
2022-11-12T17:26:24.795Z,9.90
2022-11-12T17:28:57.549Z,9.80
2022-11-12T17:31:27.382Z,9.80
2022-11-12T17:33:54.110Z,9.70
2022-11-12T17:36:23.592Z,9.70
2022-11-12T17:38:57.250Z,9.60
2022-11-12T17:41:25.180Z,9.60
2022-11-12T17:43:56.459Z,9.60
2022-11-12T17:46:23.731Z,9.50
2022-11-12T17:48:50.783Z,9.50
2022-11-12T17:51:20.359Z,9.50
2022-11-12T17:53:47.235Z,9.40
2022-11-12T17:56:17.736Z,9.60
2022-11-12T17:58:48.493Z,9.40
2022-11-12T18:01:21.782Z,9.30
2022-11-12T18:03:50.452Z,9.30
2022-11-12T18:08:45.916Z,9.20
2022-11-12T18:11:14.382Z,9.10
2022-11-12T18:13:41.148Z,9.10
2022-11-12T18:16:33.912Z,9.00
2022-11-12T18:19:01.250Z,9.10
2022-11-12T18:21:28.445Z,9.00
2022-11-12T18:23:55.260Z,8.90
2022-11-12T18:26:22.211Z,8.90
2022-11-12T18:28:52.462Z,8.90
2022-11-12T18:31:19.294Z,8.80
2022-11-12T18:33:45.990Z,8.70
2022-11-12T18:36:16.413Z,8.70
2022-11-12T18:38:43.117Z,8.60
2022-11-12T18:41:12.204Z,8.60
2022-11-12T18:43:39.631Z,8.60
2022-11-12T18:46:07.319Z,8.50
2022-11-12T18:48:35.087Z,8.50
2022-11-12T18:51:13.414Z,8.50
2022-11-12T18:53:41.438Z,8.40
2022-11-12T18:56:13.951Z,8.40
2022-11-12T18:58:40.939Z,8.40
2022-11-12T19:01:15.967Z,8.30
2022-11-12T19:03:43.868Z,8.30
2022-11-12T19:06:14.687Z,8.30
2022-11-12T19:08:41.802Z,8.30
2022-11-12T19:11:11.522Z,8.20
2022-11-12T19:13:38.837Z,8.20
2022-11-12T19:16:16.983Z,8.20
2022-11-12T19:18:44.456Z,8.10
2022-11-12T19:21:17.305Z,8.10
2022-11-12T19:23:44.491Z,8.10
2022-11-12T19:26:12.811Z,8.10
2022-11-12T19:28:40.352Z,8.10
2022-11-12T19:31:10.635Z,8.00
2022-11-12T19:33:37.347Z,8.00
2022-11-12T19:36:09.425Z,8.00
2022-11-12T19:38:36.207Z,7.90
2022-11-12T19:41:08.004Z,7.90
2022-11-12T19:43:34.817Z,7.90
2022-11-12T19:46:02.302Z,7.90
2022-11-12T19:48:29.682Z,7.80
2022-11-12T19:51:05.193Z,7.80
2022-11-12T19:53:37.169Z,7.80
2022-11-12T19:56:05.814Z,7.70
2022-11-12T19:58:33.226Z,7.70
2022-11-12T20:01:11.254Z,7.70
2022-11-12T20:03:38.446Z,7.70
2022-11-12T20:06:13.086Z,7.60
2022-11-12T20:08:39.956Z,7.60
2022-11-12T20:11:07.805Z,7.60
2022-11-12T20:13:34.563Z,7.60
2022-11-12T20:16:09.647Z,7.60
2022-11-12T20:18:36.419Z,7.60
2022-11-12T20:21:04.969Z,7.50
2022-11-12T20:23:33.870Z,7.50
2022-11-12T20:26:07.331Z,7.50
2022-11-12T20:28:35.093Z,7.40
2022-11-12T20:31:07.075Z,7.40
2022-11-12T20:33:37.989Z,7.40
2022-11-12T20:36:11.748Z,7.30
2022-11-12T20:38:40.319Z,7.30
2022-11-12T20:41:12.245Z,7.30
2022-11-12T20:43:38.942Z,7.20
2022-11-12T20:46:05.793Z,7.20
2022-11-12T20:48:32.506Z,7.20
2022-11-12T20:51:24.690Z,7.10
2022-11-12T20:53:58.949Z,7.10
2022-11-12T20:56:28.599Z,7.10
2022-11-12T20:58:55.508Z,7.10
2022-11-12T21:01:23.776Z,7.00
2022-11-12T21:03:51.180Z,7.00
2022-11-12T21:06:21.281Z,7.00
2022-11-12T21:08:48.315Z,7.00
2022-11-12T21:11:17.958Z,7.00
2022-11-12T21:13:44.888Z,7.00
2022-11-12T21:16:13.058Z,6.90
2022-11-12T21:18:39.894Z,6.90
2022-11-12T21:21:15.351Z,6.90
2022-11-12T21:23:43.932Z,6.80
2022-11-12T21:26:16.110Z,6.90
2022-11-12T21:28:48.288Z,6.80
2022-11-12T21:31:18.651Z,6.80
2022-11-12T21:33:48.757Z,6.80
2022-11-12T21:36:16.763Z,6.70
2022-11-12T21:38:44.422Z,6.70
2022-11-12T21:41:23.573Z,6.70
2022-11-12T21:43:50.787Z,6.70
2022-11-12T21:46:24.846Z,6.70
2022-11-12T21:48:55.074Z,6.70
2022-11-12T21:51:30.915Z,6.70
2022-11-12T21:54:03.683Z,6.70
2022-11-12T21:56:30.791Z,6.70
2022-11-12T21:59:00.297Z,6.70
2022-11-12T22:01:29.908Z,6.70
2022-11-12T22:03:57.939Z,6.70
2022-11-12T22:06:29.736Z,6.70
2022-11-12T22:08:58.211Z,6.60
2022-11-12T22:11:27.660Z,6.60
2022-11-12T22:16:23.836Z,6.60
2022-11-12T22:18:53.275Z,6.50
2022-11-12T22:21:28.437Z,6.50
2022-11-12T22:23:55.857Z,6.50
2022-11-12T22:26:25.353Z,6.50
2022-11-12T22:28:53.482Z,6.50
2022-11-12T22:31:23.175Z,6.50
2022-11-12T22:33:50.519Z,6.50
2022-11-12T22:36:22.663Z,6.50
2022-11-12T22:38:51.231Z,6.40
2022-11-12T22:41:20.555Z,6.40
2022-11-12T22:43:48.790Z,6.40
2022-11-12T22:46:21.673Z,6.40
2022-11-12T22:48:48.803Z,6.40
2022-11-12T22:51:24.216Z,6.40
2022-11-12T22:53:58.971Z,6.30
2022-11-12T22:56:27.306Z,6.40
2022-11-12T22:58:54.685Z,6.30
2022-11-12T23:01:24.224Z,6.30
2022-11-12T23:03:52.363Z,6.30
2022-11-12T23:06:19.285Z,6.30
2022-11-12T23:08:46.284Z,6.30
2022-11-12T23:11:16.388Z,6.30
2022-11-12T23:13:43.981Z,6.30
2022-11-12T23:16:13.933Z,6.30
2022-11-12T23:18:41.046Z,6.30
2022-11-12T23:21:10.047Z,6.30
2022-11-12T23:23:37.252Z,6.30
2022-11-12T23:26:07.492Z,6.30
2022-11-12T23:28:35.242Z,6.30
2022-11-12T23:31:09.316Z,6.30
2022-11-12T23:33:36.152Z,6.30
2022-11-12T23:36:08.221Z,6.20
2022-11-12T23:38:35.225Z,6.20
2022-11-12T23:41:02.917Z,6.20
2022-11-12T23:43:29.819Z,6.10
2022-11-12T23:45:57.843Z,6.20
2022-11-12T23:48:25.397Z,6.20
2022-11-12T23:51:04.578Z,6.20
2022-11-12T23:53:33.328Z,6.20
2022-11-12T23:56:00.884Z,6.00
2022-11-12T23:58:28.390Z,6.20
